Time;durP1;ratioP1;P1;durP2;ratioP2;P2;SDS_P1;SDS_P2;PMS_P1;PMS_P2;Temp;Humidity;BMP_temperature;BMP_pressure;BME280_temperature;BME280_humidity;BME280_pressure;Samples;Min_cycle;Max_cycle;Signal;HPM_P1;HPM_P2
2022/04/13 00:01:19;;;;;;;9.90;4.00;;;;;;;;;;5005691;28;20493;-68
2022/04/13 00:04:05;;;;;;;6.53;3.95;;;;;;;;;;5011560;28;20038;-68
2022/04/13 00:06:50;;;;;;;5.50;3.20;;;;;;;;;;5001603;28;20381;-69
2022/04/13 00:09:35;;;;;;;7.45;3.88;;;;;;;;;;5014033;28;20042;-70
2022/04/13 00:12:21;;;;;;;9.75;3.83;;;;;;;;;;4995891;28;20022;-71
2022/04/13 00:15:08;;;;;;;7.97;3.85;;;;;;;;;;4991506;28;20076;-71
2022/04/13 00:17:53;;;;;;;6.63;3.58;;;;;;;;;;5015983;28;20069;-71
2022/04/13 00:20:38;;;;;;;6.78;3.72;;;;;;;;;;5025850;28;20124;-71
2022/04/13 00:23:23;;;;;;;6.50;3.53;;;;;;;;;;5022070;28;20026;-70
2022/04/13 00:26:09;;;;;;;6.72;3.38;;;;;;;;;;5007816;28;20022;-69
2022/04/13 00:28:54;;;;;;;9.55;3.60;;;;;;;;;;5004985;28;20048;-68
2022/04/13 00:31:39;;;;;;;8.75;4.05;;;;;;;;;;5002992;28;20095;-68
2022/04/13 00:34:25;;;;;;;8.95;3.80;;;;;;;;;;5006509;28;20178;-68
2022/04/13 00:37:10;;;;;;;10.82;4.50;;;;;;;;;;4999435;28;20026;-69
2022/04/13 00:39:55;;;;;;;8.10;3.22;;;;;;;;;;5007067;28;20037;-69
2022/04/13 00:42:40;;;;;;;7.22;3.50;;;;;;;;;;4995372;28;20036;-70
2022/04/13 00:45:26;;;;;;;6.72;3.53;;;;;;;;;;5008534;28;20103;-67
2022/04/13 00:48:19;;;;;;;9.27;4.00;;;;;;;;;;5020145;28;20037;-68
2022/04/13 00:51:04;;;;;;;6.90;3.47;;;;;;;;;;5002086;28;20524;-68
2022/04/13 00:53:50;;;;;;;7.57;4.13;;;;;;;;;;4997221;28;20018;-70
2022/04/13 00:56:37;;;;;;;7.10;3.65;;;;;;;;;;5003816;28;20029;-68
2022/04/13 00:59:23;;;;;;;7.07;3.95;;;;;;;;;;5000675;28;20036;-69
2022/04/13 01:02:08;;;;;;;7.63;4.03;;;;;;;;;;5019604;28;20033;-68
2022/04/13 01:04:54;;;;;;;8.02;4.18;;;;;;;;;;5007670;28;20025;-70
2022/04/13 01:07:41;;;;;;;9.23;4.65;;;;;;;;;;5008388;28;20038;-71
2022/04/13 01:10:27;;;;;;;6.57;4.05;;;;;;;;;;5015495;28;20026;-70
2022/04/13 01:13:13;;;;;;;8.50;3.92;;;;;;;;;;5021328;28;20092;-73
2022/04/13 01:15:58;;;;;;;8.25;3.88;;;;;;;;;;5007548;28;20087;-70
2022/04/13 01:18:43;;;;;;;9.80;4.68;;;;;;;;;;5008562;28;20030;-70
2022/04/13 01:21:42;;;;;;;11.00;4.40;;;;;;;;;;5007153;28;20053;-66
2022/04/13 01:24:29;;;;;;;7.18;4.13;;;;;;;;;;4997651;28;20032;-69
2022/04/13 01:27:15;;;;;;;11.27;4.78;;;;;;;;;;5006629;28;20042;-68
2022/04/13 01:30:00;;;;;;;8.18;4.45;;;;;;;;;;4995887;28;20033;-69
2022/04/13 01:32:45;;;;;;;8.25;4.22;;;;;;;;;;5013846;28;20465;-72
2022/04/13 01:35:30;;;;;;;7.82;3.97;;;;;;;;;;5002174;28;20085;-72
2022/04/13 01:38:16;;;;;;;10.77;4.95;;;;;;;;;;5012879;28;20084;-70
2022/04/13 01:41:01;;;;;;;8.27;4.10;;;;;;;;;;5005328;28;20048;-70
2022/04/13 01:43:46;;;;;;;9.98;5.20;;;;;;;;;;5008625;28;20080;-71
2022/04/13 01:46:31;;;;;;;9.35;4.13;;;;;;;;;;5007144;28;20026;-70
2022/04/13 01:49:17;;;;;;;10.25;3.90;;;;;;;;;;5007616;28;20469;-70
2022/04/13 01:52:03;;;;;;;10.23;4.22;;;;;;;;;;4994937;28;20057;-71
2022/04/13 01:54:48;;;;;;;12.27;4.43;;;;;;;;;;5002721;28;20026;-68
2022/04/13 01:57:34;;;;;;;8.85;4.55;;;;;;;;;;4999534;28;20120;-62
2022/04/13 02:00:19;;;;;;;8.55;3.88;;;;;;;;;;5006047;28;20022;-62
2022/04/13 02:03:04;;;;;;;8.50;4.35;;;;;;;;;;5003401;28;20026;-61
2022/04/13 02:05:52;;;;;;;8.13;4.22;;;;;;;;;;5012385;28;20296;-62
2022/04/13 02:08:37;;;;;;;7.80;4.07;;;;;;;;;;5010653;28;20460;-62
2022/04/13 02:11:22;;;;;;;7.90;4.20;;;;;;;;;;5006040;28;20038;-61
2022/04/13 02:14:07;;;;;;;8.35;3.97;;;;;;;;;;5009024;28;20034;-62
2022/04/13 02:16:53;;;;;;;11.65;4.43;;;;;;;;;;5023904;28;20018;-67
2022/04/13 02:19:38;;;;;;;7.85;4.40;;;;;;;;;;5011879;28;20045;-72
2022/04/13 02:22:23;;;;;;;11.50;4.57;;;;;;;;;;5009297;28;20096;-71
2022/04/13 02:25:08;;;;;;;9.80;4.30;;;;;;;;;;5011976;28;20497;-71
2022/04/13 02:27:54;;;;;;;7.63;4.25;;;;;;;;;;5010273;28;20444;-70
2022/04/13 02:30:39;;;;;;;8.27;4.00;;;;;;;;;;5011816;28;20121;-72
2022/04/13 02:33:25;;;;;;;10.82;5.10;;;;;;;;;;5029996;28;20075;-73
2022/04/13 02:36:11;;;;;;;10.20;4.13;;;;;;;;;;5012766;28;20408;-62
2022/04/13 02:38:56;;;;;;;9.75;4.03;;;;;;;;;;5001557;28;20030;-68
2022/04/13 02:41:41;;;;;;;11.38;4.32;;;;;;;;;;4996974;28;20120;-68
2022/04/13 02:44:26;;;;;;;8.40;3.80;;;;;;;;;;5007059;28;20034;-68
2022/04/13 02:47:12;;;;;;;8.65;4.00;;;;;;;;;;5014044;28;20034;-69
2022/04/13 02:49:57;;;;;;;9.40;3.92;;;;;;;;;;5009678;28;20111;-69
2022/04/13 02:52:42;;;;;;;7.75;3.67;;;;;;;;;;5011173;28;20033;-70
2022/04/13 02:55:27;;;;;;;7.18;3.72;;;;;;;;;;5008623;28;20037;-68
2022/04/13 02:58:13;;;;;;;5.47;3.55;;;;;;;;;;5026963;28;20034;-68
2022/04/13 03:00:58;;;;;;;11.70;4.60;;;;;;;;;;5010844;28;20052;-69
2022/04/13 03:03:43;;;;;;;8.25;3.67;;;;;;;;;;5003279;28;20452;-67
2022/04/13 03:06:28;;;;;;;9.50;3.25;;;;;;;;;;4996272;28;20026;-67
2022/04/13 03:09:14;;;;;;;6.90;3.28;;;;;;;;;;5009861;28;20041;-69
2022/04/13 03:11:59;;;;;;;5.55;3.35;;;;;;;;;;5004798;28;20030;-70
2022/04/13 03:14:44;;;;;;;8.70;3.80;;;;;;;;;;5003067;28;20057;-71
2022/04/13 03:17:29;;;;;;;8.93;4.32;;;;;;;;;;5003899;28;20038;-71
2022/04/13 03:20:14;;;;;;;7.30;3.72;;;;;;;;;;5009220;28;20036;-73
2022/04/13 03:23:03;;;;;;;7.72;3.80;;;;;;;;;;5010550;28;20449;-71
2022/04/13 03:25:48;;;;;;;7.35;3.72;;;;;;;;;;5009385;28;20117;-70
2022/04/13 03:28:34;;;;;;;6.72;3.88;;;;;;;;;;5004811;28;20084;-72
2022/04/13 03:31:19;;;;;;;6.20;3.53;;;;;;;;;;5002208;28;20032;-68
2022/04/13 03:34:04;;;;;;;8.52;3.75;;;;;;;;;;5010049;28;20084;-72
2022/04/13 03:36:50;;;;;;;5.18;3.30;;;;;;;;;;5003216;28;20030;-72
2022/04/13 03:39:35;;;;;;;5.18;3.67;;;;;;;;;;4993093;28;20019;-72
2022/04/13 03:42:20;;;;;;;7.75;4.35;;;;;;;;;;5011665;28;20057;-72
2022/04/13 03:45:06;;;;;;;7.00;3.60;;;;;;;;;;5023721;28;20114;-71
2022/04/13 03:47:52;;;;;;;8.25;4.05;;;;;;;;;;5006405;28;20042;-69
2022/04/13 03:50:37;;;;;;;7.53;3.75;;;;;;;;;;5000351;28;20037;-71
2022/04/13 03:53:22;;;;;;;8.27;3.70;;;;;;;;;;5010318;28;20029;-68
2022/04/13 03:56:07;;;;;;;10.32;3.85;;;;;;;;;;5023193;28;20025;-72
2022/04/13 03:58:53;;;;;;;5.53;3.60;;;;;;;;;;5000224;28;20030;-70
2022/04/13 04:01:38;;;;;;;7.95;3.75;;;;;;;;;;4995085;28;20478;-70
2022/04/13 04:04:24;;;;;;;7.40;4.38;;;;;;;;;;5007146;28;20034;-70
2022/04/13 04:07:09;;;;;;;8.40;4.18;;;;;;;;;;5008780;28;20473;-67
2022/04/13 04:09:54;;;;;;;11.80;4.10;;;;;;;;;;4993906;28;20076;-63
2022/04/13 04:12:40;;;;;;;5.95;3.67;;;;;;;;;;4999851;28;20493;-63
2022/04/13 04:15:25;;;;;;;7.35;3.40;;;;;;;;;;5022896;28;20053;-62
2022/04/13 04:18:11;;;;;;;6.00;3.55;;;;;;;;;;5003666;28;20567;-62
2022/04/13 04:20:56;;;;;;;6.28;3.70;;;;;;;;;;5009621;28;20136;-65
2022/04/13 04:23:42;;;;;;;7.50;3.85;;;;;;;;;;5008206;28;20030;-66
2022/04/13 04:26:28;;;;;;;6.65;3.40;;;;;;;;;;5000571;28;20291;-66
2022/04/13 04:29:13;;;;;;;9.30;3.75;;;;;;;;;;5008276;28;20042;-68
2022/04/13 04:31:59;;;;;;;8.95;3.72;;;;;;;;;;5009135;28;20448;-69
2022/04/13 04:34:44;;;;;;;7.97;4.38;;;;;;;;;;5009748;28;20105;-69
2022/04/13 04:37:30;;;;;;;10.23;4.53;;;;;;;;;;4990516;28;20014;-70
2022/04/13 04:40:15;;;;;;;8.70;3.47;;;;;;;;;;4985204;28;20083;-71
2022/04/13 04:43:01;;;;;;;7.82;4.28;;;;;;;;;;5006894;28;20389;-67
2022/04/13 04:45:46;;;;;;;7.68;4.03;;;;;;;;;;5004837;28;20057;-69
2022/04/13 04:48:31;;;;;;;9.50;4.28;;;;;;;;;;5007495;28;20483;-70
2022/04/13 04:51:16;;;;;;;7.53;3.70;;;;;;;;;;5008398;28;20088;-71
2022/04/13 04:54:02;;;;;;;5.57;3.42;;;;;;;;;;5007988;28;20041;-69
2022/04/13 04:56:47;;;;;;;7.38;3.78;;;;;;;;;;5014268;28;20034;-69
2022/04/13 04:59:32;;;;;;;8.02;4.07;;;;;;;;;;4999742;28;20346;-68
2022/04/13 05:02:18;;;;;;;11.43;4.30;;;;;;;;;;4998063;28;20031;-68
2022/04/13 05:05:06;;;;;;;6.97;4.10;;;;;;;;;;5004808;28;20034;-67
2022/04/13 05:07:52;;;;;;;11.88;4.20;;;;;;;;;;5008851;28;20044;-68
2022/04/13 05:10:37;;;;;;;6.45;3.60;;;;;;;;;;5007621;28;20026;-68
2022/04/13 05:13:22;;;;;;;8.38;3.85;;;;;;;;;;5008422;28;20025;-70
2022/04/13 05:16:08;;;;;;;8.55;4.03;;;;;;;;;;5002233;28;20094;-70
2022/04/13 05:18:53;;;;;;;8.32;4.25;;;;;;;;;;5028116;28;20041;-69
2022/04/13 05:21:38;;;;;;;8.45;3.97;;;;;;;;;;5008361;28;20133;-66
2022/04/13 05:24:23;;;;;;;8.63;3.85;;;;;;;;;;5006617;28;20234;-60
2022/04/13 05:27:09;;;;;;;11.65;4.05;;;;;;;;;;5008273;28;20477;-61
2022/04/13 05:29:54;;;;;;;9.43;4.30;;;;;;;;;;5022121;28;20037;-61
2022/04/13 05:32:58;;;;;;;9.77;4.38;;;;;;;;;;5021877;28;20060;-61
2022/04/13 05:35:45;;;;;;;6.90;3.75;;;;;;;;;;5025622;28;20030;-61
2022/04/13 05:38:30;;;;;;;7.70;4.18;;;;;;;;;;5022160;28;20065;-66
2022/04/13 05:41:15;;;;;;;8.10;4.00;;;;;;;;;;5006271;28;20104;-71
2022/04/13 05:44:00;;;;;;;11.45;3.90;;;;;;;;;;5015552;28;20045;-71
2022/04/13 05:46:46;;;;;;;10.30;4.30;;;;;;;;;;5011587;28;20030;-71
2022/04/13 05:49:31;;;;;;;8.13;3.97;;;;;;;;;;5010562;28;20053;-70
2022/04/13 05:52:16;;;;;;;7.28;3.45;;;;;;;;;;5006973;28;20041;-71
2022/04/13 05:55:01;;;;;;;7.45;4.65;;;;;;;;;;5011567;28;20076;-71
2022/04/13 05:57:47;;;;;;;10.30;4.75;;;;;;;;;;5005988;28;20069;-68
2022/04/13 06:00:32;;;;;;;7.97;4.07;;;;;;;;;;5007829;28;20388;-69
2022/04/13 06:03:18;;;;;;;9.10;4.25;;;;;;;;;;4992705;28;20129;-70
2022/04/13 06:06:03;;;;;;;12.40;5.40;;;;;;;;;;5008334;28;20044;-69
2022/04/13 06:08:49;;;;;;;12.07;4.88;;;;;;;;;;5007471;28;20040;-69
2022/04/13 06:11:34;;;;;;;10.95;5.15;;;;;;;;;;5010246;28;20406;-73
2022/04/13 06:14:20;;;;;;;7.70;4.38;;;;;;;;;;5010009;28;20473;-70
2022/04/13 06:17:05;;;;;;;8.60;4.82;;;;;;;;;;5009614;28;20029;-69
2022/04/13 06:19:50;;;;;;;8.93;4.28;;;;;;;;;;5006328;28;20044;-64
2022/04/13 06:22:39;;;;;;;9.02;4.18;;;;;;;;;;5006912;28;20046;-63
2022/04/13 06:25:24;;;;;;;10.93;4.10;;;;;;;;;;5013126;28;20328;-62
2022/04/13 06:28:10;;;;;;;9.15;4.43;;;;;;;;;;5010609;28;20268;-63
2022/04/13 06:30:55;;;;;;;13.05;4.55;;;;;;;;;;5011407;28;20117;-64
2022/04/13 06:33:40;;;;;;;9.68;3.75;;;;;;;;;;5009948;28;20026;-71
2022/04/13 06:36:25;;;;;;;7.82;4.00;;;;;;;;;;5010722;28;20014;-67
2022/04/13 06:39:11;;;;;;;7.78;4.00;;;;;;;;;;5027716;28;20406;-68
2022/04/13 06:41:56;;;;;;;6.40;3.75;;;;;;;;;;5026431;28;20029;-68
2022/04/13 06:44:41;;;;;;;11.48;4.63;;;;;;;;;;4996686;28;20049;-66
2022/04/13 06:47:29;;;;;;;10.32;4.50;;;;;;;;;;5016956;28;20026;-70
2022/04/13 06:50:14;;;;;;;13.02;4.18;;;;;;;;;;4995815;28;20073;-67
2022/04/13 06:52:59;;;;;;;12.13;5.20;;;;;;;;;;5004652;28;20033;-72
2022/04/13 06:55:47;;;;;;;9.75;4.53;;;;;;;;;;4991332;28;20027;-69
2022/04/13 06:58:32;;;;;;;14.60;5.25;;;;;;;;;;5009300;28;20033;-73
2022/04/13 07:01:18;;;;;;;10.93;5.22;;;;;;;;;;5014456;28;20033;-72
2022/04/13 07:04:03;;;;;;;12.00;4.90;;;;;;;;;;5007960;28;20019;-70
2022/04/13 07:06:48;;;;;;;12.40;4.55;;;;;;;;;;4991751;28;20037;-68
2022/04/13 07:09:33;;;;;;;13.75;4.78;;;;;;;;;;5009493;28;20041;-71
2022/04/13 07:12:19;;;;;;;16.25;5.07;;;;;;;;;;5024787;28;20448;-70
2022/04/13 07:15:04;;;;;;;12.93;5.05;;;;;;;;;;5010148;28;20038;-63
2022/04/13 07:17:49;;;;;;;9.02;4.82;;;;;;;;;;5008065;28;20593;-62
2022/04/13 07:20:34;;;;;;;10.63;4.50;;;;;;;;;;5010611;28;20046;-61
2022/04/13 07:23:20;;;;;;;12.10;4.25;;;;;;;;;;5010223;28;20036;-62
2022/04/13 07:26:05;;;;;;;9.70;4.85;;;;;;;;;;5023557;28;20033;-62
2022/04/13 07:28:52;;;;;;;8.18;4.00;;;;;;;;;;5003941;28;20057;-69
2022/04/13 07:31:38;;;;;;;10.73;4.03;;;;;;;;;;5002707;28;20018;-73
2022/04/13 07:34:23;;;;;;;13.40;5.50;;;;;;;;;;5021032;28;20032;-72
2022/04/13 07:37:08;;;;;;;11.18;3.78;;;;;;;;;;4991019;28;20371;-72
2022/04/13 07:39:54;;;;;;;9.52;3.70;;;;;;;;;;5005609;28;20042;-72
2022/04/13 07:42:39;;;;;;;9.02;3.67;;;;;;;;;;4993333;28;20026;-73
2022/04/13 07:45:25;;;;;;;9.27;3.90;;;;;;;;;;5023003;28;20032;-72
2022/04/13 07:48:10;;;;;;;15.90;4.68;;;;;;;;;;5019048;28;20022;-63
2022/04/13 07:50:55;;;;;;;9.43;4.05;;;;;;;;;;5001421;28;20044;-63
2022/04/13 07:53:40;;;;;;;9.80;4.88;;;;;;;;;;4977245;28;20545;-64
2022/04/13 07:56:26;;;;;;;14.20;4.72;;;;;;;;;;5000012;28;20037;-62
2022/04/13 07:59:11;;;;;;;10.02;4.70;;;;;;;;;;4997931;28;20091;-62
2022/04/13 08:01:56;;;;;;;13.95;5.05;;;;;;;;;;5008693;28;20030;-62
2022/04/13 08:04:41;;;;;;;12.20;5.35;;;;;;;;;;5010370;28;20120;-62
2022/04/13 08:07:27;;;;;;;13.02;4.95;;;;;;;;;;5005013;28;20021;-68
2022/04/13 08:10:12;;;;;;;14.45;5.70;;;;;;;;;;5009474;28;20037;-67
2022/04/13 08:12:58;;;;;;;13.73;6.03;;;;;;;;;;5006950;28;20080;-70
2022/04/13 08:15:43;;;;;;;15.15;5.85;;;;;;;;;;5013493;28;20041;-69
2022/04/13 08:18:28;;;;;;;10.88;5.43;;;;;;;;;;5009714;28;20136;-66
2022/04/13 08:21:13;;;;;;;12.43;5.32;;;;;;;;;;5005571;28;20888;-66
2022/04/13 08:23:59;;;;;;;14.95;5.60;;;;;;;;;;5014333;28;20053;-70
2022/04/13 08:26:44;;;;;;;18.77;5.72;;;;;;;;;;5022170;28;20054;-70
2022/04/13 08:29:29;;;;;;;13.02;5.38;;;;;;;;;;5003825;28;20026;-71
2022/04/13 08:32:18;;;;;;;11.43;4.50;;;;;;;;;;4985597;28;20026;-68
2022/04/13 08:35:05;;;;;;;18.50;4.07;;;;;;;;;;4991900;28;20033;-71
2022/04/13 08:37:50;;;;;;;11.32;4.43;;;;;;;;;;4999051;28;20041;-70
2022/04/13 08:40:38;;;;;;;12.55;3.83;;;;;;;;;;5008012;28;20021;-69
2022/04/13 08:43:30;;;;;;;9.02;3.72;;;;;;;;;;4999153;28;20390;-63
2022/04/13 08:46:19;;;;;;;10.88;4.57;;;;;;;;;;5002830;28;20259;-62
2022/04/13 08:49:07;;;;;;;7.75;3.97;;;;;;;;;;5008024;28;20046;-63
2022/04/13 08:51:53;;;;;;;10.00;4.22;;;;;;;;;;5008905;28;20500;-62
2022/04/13 08:54:40;;;;;;;8.93;3.97;;;;;;;;;;5008937;28;20043;-63
2022/04/13 08:57:28;;;;;;;13.45;4.20;;;;;;;;;;5007889;28;20025;-63
2022/04/13 09:00:17;;;;;;;10.68;4.80;;;;;;;;;;5004327;28;20042;-62
2022/04/13 09:03:21;;;;;;;7.63;3.35;;;;;;;;;;5006527;28;20044;-63
2022/04/13 09:06:08;;;;;;;11.93;4.55;;;;;;;;;;5007830;28;20065;-68
2022/04/13 09:08:56;;;;;;;15.40;3.60;;;;;;;;;;5000976;28;20100;-68
2022/04/13 09:11:44;;;;;;;9.90;2.92;;;;;;;;;;5008604;28;20109;-69
2022/04/13 09:14:30;;;;;;;5.75;2.55;;;;;;;;;;5007859;28;20021;-69
2022/04/13 09:17:15;;;;;;;7.85;2.75;;;;;;;;;;5009653;28;20120;-68
2022/04/13 09:20:01;;;;;;;7.88;2.92;;;;;;;;;;5011814;28;20045;-71
2022/04/13 09:22:46;;;;;;;7.07;2.47;;;;;;;;;;4999498;28;20088;-70
2022/04/13 09:25:32;;;;;;;9.52;2.63;;;;;;;;;;5002329;28;20520;-70
2022/04/13 09:28:18;;;;;;;7.82;2.85;;;;;;;;;;5030393;28;20085;-69
2022/04/13 09:31:04;;;;;;;10.68;2.92;;;;;;;;;;5007888;28;20045;-69
2022/04/13 09:33:49;;;;;;;8.07;2.63;;;;;;;;;;4995926;28;20076;-71
2022/04/13 09:36:35;;;;;;;6.68;2.25;;;;;;;;;;4989321;28;20026;-71
2022/04/13 09:39:21;;;;;;;8.40;3.00;;;;;;;;;;4993105;28;20175;-69
2022/04/13 09:42:06;;;;;;;9.80;3.35;;;;;;;;;;5008299;28;20065;-65
2022/04/13 09:44:56;;;;;;;6.35;3.10;;;;;;;;;;5006997;28;20577;-64
2022/04/13 09:47:45;;;;;;;5.03;2.83;;;;;;;;;;5007280;28;20029;-66
2022/04/13 09:50:30;;;;;;;11.57;3.38;;;;;;;;;;5004284;28;20436;-66
2022/04/13 09:53:16;;;;;;;7.53;3.38;;;;;;;;;;4994351;28;20175;-63
2022/04/13 09:56:02;;;;;;;5.85;2.83;;;;;;;;;;4996914;28;20038;-72
2022/04/13 09:58:48;;;;;;;10.32;3.33;;;;;;;;;;5002697;28;20084;-70
2022/04/13 10:01:34;;;;;;;8.90;3.40;;;;;;;;;;5006722;28;20423;-69
2022/04/13 10:04:27;;;;;;;9.32;3.78;;;;;;;;;;5016700;28;20030;-72
2022/04/13 10:07:13;;;;;;;10.48;3.50;;;;;;;;;;4989511;28;20505;-73
2022/04/13 10:09:59;;;;;;;8.40;3.20;;;;;;;;;;5004721;28;20438;-72
2022/04/13 10:12:51;;;;;;;10.07;3.72;;;;;;;;;;5021710;28;20029;-71
2022/04/13 10:15:36;;;;;;;6.97;3.17;;;;;;;;;;5006264;28;20026;-59
2022/04/13 10:18:21;;;;;;;7.75;3.00;;;;;;;;;;5021655;28;20053;-61
2022/04/13 10:21:07;;;;;;;8.30;3.00;;;;;;;;;;5006559;28;20053;-66
2022/04/13 10:23:52;;;;;;;7.03;2.88;;;;;;;;;;5008752;28;20022;-62
2022/04/13 10:26:39;;;;;;;8.25;2.72;;;;;;;;;;5009964;28;20112;-62
2022/04/13 10:29:26;;;;;;;6.70;2.70;;;;;;;;;;4992282;28;20084;-62
2022/04/13 10:32:13;;;;;;;10.13;3.53;;;;;;;;;;5014520;28;20037;-60
2022/04/13 10:34:59;;;;;;;9.00;3.08;;;;;;;;;;5024923;28;20093;-71
2022/04/13 10:37:44;;;;;;;8.13;2.72;;;;;;;;;;5010242;28;20033;-60
2022/04/13 10:40:34;;;;;;;8.13;2.72;;;;;;;;;;5015673;28;20120;-62
2022/04/13 10:43:21;;;;;;;8.48;2.58;;;;;;;;;;5014072;28;20033;-63
2022/04/13 10:46:09;;;;;;;10.40;3.80;;;;;;;;;;5024681;28;20022;-61
2022/04/13 10:48:55;;;;;;;9.65;2.70;;;;;;;;;;5023508;28;20088;-62
2022/04/13 10:51:40;;;;;;;9.68;3.63;;;;;;;;;;5004554;28;20059;-69
2022/04/13 10:54:27;;;;;;;7.18;2.58;;;;;;;;;;5004671;28;20034;-59
2022/04/13 10:57:12;;;;;;;6.95;2.60;;;;;;;;;;4996580;28;20069;-59
2022/04/13 11:00:01;;;;;;;8.60;3.22;;;;;;;;;;5021375;28;20511;-59
2022/04/13 11:03:03;;;;;;;5.67;2.70;;;;;;;;;;5012727;28;20488;-58
2022/04/13 11:05:48;;;;;;;10.98;2.85;;;;;;;;;;5010364;28;20025;-58
2022/04/13 11:08:55;;;;;;;10.05;2.83;;;;;;;;;;5008228;28;20037;-58
2022/04/13 11:11:41;;;;;;;12.13;3.10;;;;;;;;;;5007364;28;20557;-59
2022/04/13 11:14:27;;;;;;;10.00;3.13;;;;;;;;;;5007652;28;20072;-60
2022/04/13 11:17:15;;;;;;;8.35;3.40;;;;;;;;;;5006854;28;20053;-57
2022/04/13 11:20:21;;;;;;;8.27;3.03;;;;;;;;;;5009641;28;20049;-59
2022/04/13 11:23:08;;;;;;;6.72;2.90;;;;;;;;;;5008504;28;20050;-59
2022/04/13 11:25:58;;;;;;;7.78;2.88;;;;;;;;;;5019159;28;20095;-57
2022/04/13 11:28:43;;;;;;;10.60;2.65;;;;;;;;;;5023119;28;20026;-69
2022/04/13 11:31:28;;;;;;;8.68;2.58;;;;;;;;;;5024828;28;20405;-60
2022/04/13 11:34:14;;;;;;;8.27;3.17;;;;;;;;;;5003298;28;20096;-59
2022/04/13 11:37:00;;;;;;;6.80;2.88;;;;;;;;;;4991076;28;20043;-61
2022/04/13 11:39:53;;;;;;;7.22;2.55;;;;;;;;;;4999220;28;20117;-63
2022/04/13 11:42:43;;;;;;;10.13;3.35;;;;;;;;;;5022228;28;20018;-60
2022/04/13 11:45:29;;;;;;;7.25;2.63;;;;;;;;;;5008925;28;20051;-61
2022/04/13 11:48:30;;;;;;;8.07;2.60;;;;;;;;;;5022231;28;20025;-62
2022/04/13 11:51:23;;;;;;;10.27;2.60;;;;;;;;;;4999470;28;20045;-60
2022/04/13 11:54:09;;;;;;;5.90;3.10;;;;;;;;;;4990896;28;20038;-61
2022/04/13 11:56:56;;;;;;;7.00;2.60;;;;;;;;;;5007761;28;20037;-61
2022/04/13 11:59:46;;;;;;;9.88;3.85;;;;;;;;;;5006931;28;20046;-62
2022/04/13 12:02:32;;;;;;;11.43;2.90;;;;;;;;;;4997231;28;20021;-61
2022/04/13 12:05:18;;;;;;;6.03;2.92;;;;;;;;;;5008607;28;20025;-70
2022/04/13 12:08:17;;;;;;;10.50;2.65;;;;;;;;;;5022116;28;20191;-58
2022/04/13 12:11:03;;;;;;;9.07;2.85;;;;;;;;;;5022048;28;20045;-60
2022/04/13 12:13:56;;;;;;;7.60;2.50;;;;;;;;;;5001334;28;20077;-58
2022/04/13 12:16:44;;;;;;;7.07;2.50;;;;;;;;;;5009088;28;20076;-60
2022/04/13 12:19:44;;;;;;;8.35;2.75;;;;;;;;;;4997116;28;20046;-60
2022/04/13 12:22:33;;;;;;;9.07;2.75;;;;;;;;;;5010601;28;20058;-60
2022/04/13 12:25:21;;;;;;;10.40;2.35;;;;;;;;;;4996457;28;20465;-64
2022/04/13 12:28:06;;;;;;;6.47;2.22;;;;;;;;;;5015500;28;20038;-63
2022/04/13 12:30:55;;;;;;;8.13;2.75;;;;;;;;;;5007015;28;20488;-62
2022/04/13 12:33:40;;;;;;;5.93;2.17;;;;;;;;;;5008893;28;20036;-62
2022/04/13 12:36:26;;;;;;;6.43;2.50;;;;;;;;;;5007702;28;20121;-62
2022/04/13 12:39:12;;;;;;;5.90;2.25;;;;;;;;;;5022956;28;20494;-61
2022/04/13 12:41:58;;;;;;;9.43;2.22;;;;;;;;;;5000577;28;20029;-67
2022/04/13 12:44:46;;;;;;;7.65;2.80;;;;;;;;;;5009369;28;20036;-60
2022/04/13 12:47:32;;;;;;;8.80;2.30;;;;;;;;;;4997883;28;20030;-61
2022/04/13 12:50:17;;;;;;;4.80;2.67;;;;;;;;;;5015292;28;20526;-63
2022/04/13 12:53:02;;;;;;;7.30;2.40;;;;;;;;;;4998475;28;20122;-60
2022/04/13 12:55:55;;;;;;;4.45;1.88;;;;;;;;;;4999125;28;20026;-59
2022/04/13 12:58:41;;;;;;;6.00;2.38;;;;;;;;;;5009984;28;20025;-60
2022/04/13 13:01:27;;;;;;;6.93;2.33;;;;;;;;;;5011358;28;20521;-65
2022/04/13 13:04:13;;;;;;;6.05;1.98;;;;;;;;;;5008406;28;20029;-68
2022/04/13 13:06:59;;;;;;;6.57;2.75;;;;;;;;;;5007729;28;20096;-69
2022/04/13 13:09:51;;;;;;;4.95;2.80;;;;;;;;;;4990060;28;20022;-66
2022/04/13 13:12:36;;;;;;;5.93;2.28;;;;;;;;;;5008997;28;20069;-66
2022/04/13 13:15:34;;;;;;;9.82;2.80;;;;;;;;;;4993389;28;20033;-68
2022/04/13 13:18:20;;;;;;;6.63;2.45;;;;;;;;;;5005519;28;20040;-57
2022/04/13 13:21:05;;;;;;;5.88;2.53;;;;;;;;;;5007008;28;20177;-57
2022/04/13 13:23:50;;;;;;;5.40;2.45;;;;;;;;;;5007796;28;20113;-67
2022/04/13 13:26:35;;;;;;;9.30;2.42;;;;;;;;;;5003200;28;20026;-68
2022/04/13 13:29:21;;;;;;;8.35;3.00;;;;;;;;;;4993449;28;20026;-67
2022/04/13 13:32:10;;;;;;;9.82;3.10;;;;;;;;;;5002430;28;20037;-67
2022/04/13 13:34:55;;;;;;;;;;;;;;;;;;5019511;28;20029;-68
2022/04/13 13:37:41;;;;;;;9.00;2.75;;;;;;;;;;4982093;28;20000;-66
2022/04/13 13:40:36;;;;;;;8.88;2.92;;;;;;;;;;5005723;28;20117;-58
2022/04/13 13:43:26;;;;;;;6.35;2.15;;;;;;;;;;5002147;28;20497;-59
2022/04/13 13:46:13;;;;;;;11.82;2.70;;;;;;;;;;5000615;28;20101;-59
2022/04/13 13:49:03;;;;;;;8.77;2.22;;;;;;;;;;4998806;28;20241;-58
2022/04/13 13:51:48;;;;;;;6.90;2.22;;;;;;;;;;5021954;28;20033;-58
2022/04/13 13:54:35;;;;;;;6.47;2.03;;;;;;;;;;5007318;28;20207;-59
2022/04/13 13:57:20;;;;;;;9.20;2.42;;;;;;;;;;5007782;28;20033;-71
2022/04/13 14:00:09;;;;;;;6.20;1.92;;;;;;;;;;5006378;28;20061;-71
2022/04/13 14:02:55;;;;;;;6.38;2.53;;;;;;;;;;5010826;28;20125;-74
2022/04/13 14:05:41;;;;;;;5.63;2.33;;;;;;;;;;5004853;28;20563;-73
2022/04/13 14:08:26;;;;;;;7.95;2.78;;;;;;;;;;5011482;28;20045;-73
2022/04/13 14:11:11;;;;;;;4.35;2.38;;;;;;;;;;5000448;28;20644;-72
2022/04/13 14:13:56;;;;;;;9.48;2.42;;;;;;;;;;4994133;28;20082;-63
2022/04/13 14:16:42;;;;;;;8.13;3.20;;;;;;;;;;5007050;28;20061;-72
2022/04/13 14:19:33;;;;;;;10.32;2.80;;;;;;;;;;5011196;28;20037;-72
2022/04/13 14:22:18;;;;;;;10.32;3.47;;;;;;;;;;5022883;28;20193;-71
2022/04/13 14:25:04;;;;;;;7.35;2.65;;;;;;;;;;4997618;28;20038;-71
2022/04/13 14:27:52;;;;;;;5.72;2.30;;;;;;;;;;5000335;28;20025;-73
2022/04/13 14:30:37;;;;;;;9.45;2.55;;;;;;;;;;5013599;28;20107;-73
2022/04/13 14:33:23;;;;;;;8.30;2.33;;;;;;;;;;5002274;28;20021;-60
2022/04/13 14:36:08;;;;;;;10.45;2.90;;;;;;;;;;5010064;28;20053;-72
2022/04/13 14:38:54;;;;;;;13.23;2.42;;;;;;;;;;5010899;28;20038;-70
2022/04/13 14:41:39;;;;;;;7.90;2.33;;;;;;;;;;5009546;28;20033;-71
2022/04/13 14:44:24;;;;;;;9.32;3.13;;;;;;;;;;5009802;28;20088;-71
2022/04/13 14:47:10;;;;;;;7.32;2.90;;;;;;;;;;5008028;28;20527;-70
2022/04/13 14:49:55;;;;;;;9.23;2.97;;;;;;;;;;5014176;28;20158;-69
2022/04/13 14:52:40;;;;;;;17.70;3.20;;;;;;;;;;4993272;28;20081;-63
2022/04/13 14:55:26;;;;;;;8.93;3.22;;;;;;;;;;5021512;28;20026;-59
2022/04/13 14:58:11;;;;;;;13.80;3.95;;;;;;;;;;5004646;28;20166;-58
2022/04/13 15:00:57;;;;;;;11.23;3.47;;;;;;;;;;5005491;28;20111;-60
2022/04/13 15:03:42;;;;;;;77.45;21.17;;;;;;;;;;5003778;28;20508;-59
2022/04/13 15:06:27;;;;;;;69.75;20.23;;;;;;;;;;5000038;28;20042;-58
2022/04/13 15:09:13;;;;;;;55.50;17.25;;;;;;;;;;5003449;28;20034;-76
2022/04/13 15:11:58;;;;;;;16.58;5.25;;;;;;;;;;5023970;28;20034;-71
2022/04/13 15:14:43;;;;;;;11.52;3.92;;;;;;;;;;4996688;28;20023;-72
2022/04/13 15:17:29;;;;;;;12.10;2.88;;;;;;;;;;5006004;28;20453;-70
2022/04/13 15:20:14;;;;;;;10.95;3.63;;;;;;;;;;5009480;28;20128;-70
2022/04/13 15:22:59;;;;;;;22.50;6.93;;;;;;;;;;5016896;28;20195;-70
2022/04/13 15:25:44;;;;;;;14.80;5.03;;;;;;;;;;5003322;28;20477;-71
2022/04/13 15:28:30;;;;;;;29.92;10.27;;;;;;;;;;5008586;28;20025;-70
2022/04/13 15:31:15;;;;;;;25.40;8.30;;;;;;;;;;5001280;28;20052;-76
2022/04/13 15:34:00;;;;;;;29.25;9.25;;;;;;;;;;5006039;28;20046;-75
2022/04/13 15:36:46;;;;;;;19.20;6.10;;;;;;;;;;5005604;28;20548;-77
2022/04/13 15:39:31;;;;;;;15.80;3.88;;;;;;;;;;5008796;28;20042;-79
2022/04/13 15:42:16;;;;;;;11.90;3.05;;;;;;;;;;5008895;28;20025;-78
2022/04/13 15:45:03;;;;;;;11.45;3.30;;;;;;;;;;5008286;28;20481;-77
2022/04/13 15:47:49;;;;;;;10.93;3.65;;;;;;;;;;5013959;28;20480;-62
2022/04/13 15:50:41;;;;;;;12.75;3.67;;;;;;;;;;5009403;28;20029;-75
2022/04/13 15:53:27;;;;;;;11.88;3.83;;;;;;;;;;5017938;28;20030;-72
2022/04/13 15:56:12;;;;;;;10.15;2.83;;;;;;;;;;5010769;28;20086;-72
2022/04/13 15:58:57;;;;;;;10.18;3.80;;;;;;;;;;5022784;28;20125;-73
2022/04/13 16:01:42;;;;;;;10.48;3.35;;;;;;;;;;4983037;28;20018;-72
2022/04/13 16:04:28;;;;;;;16.92;3.75;;;;;;;;;;4997351;28;20022;-71
2022/04/13 16:07:13;;;;;;;10.65;3.05;;;;;;;;;;5004099;28;20537;-61
2022/04/13 16:09:58;;;;;;;5.05;1.88;;;;;;;;;;5020066;28;20034;-61
2022/04/13 16:12:43;;;;;;;14.43;4.57;;;;;;;;;;5010122;28;20254;-61
2022/04/13 16:15:29;;;;;;;13.32;4.00;;;;;;;;;;5010284;28;20036;-61
2022/04/13 16:18:14;;;;;;;13.52;3.22;;;;;;;;;;5011152;28;20489;-61
2022/04/13 16:21:00;;;;;;;10.77;3.50;;;;;;;;;;5001409;28;20064;-62
2022/04/13 16:23:45;;;;;;;10.43;3.30;;;;;;;;;;5005097;28;20411;-63
2022/04/13 16:26:30;;;;;;;9.90;2.42;;;;;;;;;;5031405;28;20042;-67
2022/04/13 16:29:16;;;;;;;9.70;2.80;;;;;;;;;;5009497;28;20029;-64
2022/04/13 16:32:01;;;;;;;9.48;2.28;;;;;;;;;;5003719;28;20209;-66